Time;durP1;ratioP1;P1;durP2;ratioP2;P2;SDS_P1;SDS_P2;PMS_P1;PMS_P2;Temp;Humidity;BMP_temperature;BMP_pressure;BME280_temperature;BME280_humidity;BME280_pressure;Samples;Min_cycle;Max_cycle;Signal;HPM_P1;HPM_P2
2022/07/08 00:01:05;;;;;;;;;;;14.50;99.90;;;;;;5042490;28;19929;-71
2022/07/08 00:03:32;;;;;;;;;;;14.50;99.90;;;;;;5058984;28;19921;-72
2022/07/08 00:06:00;;;;;;;;;;;14.50;99.90;;;;;;5064739;28;19920;-72
2022/07/08 00:08:28;;;;;;;;;;;14.40;99.90;;;;;;5064659;28;19952;-72
2022/07/08 00:10:55;;;;;;;;;;;14.40;99.90;;;;;;5064595;28;19967;-72
2022/07/08 00:13:21;;;;;;;;;;;14.40;99.90;;;;;;5063851;28;19925;-72
2022/07/08 00:15:48;;;;;;;;;;;14.40;99.90;;;;;;5064713;28;19948;-72
2022/07/08 00:18:15;;;;;;;;;;;14.30;99.90;;;;;;5062343;28;19928;-72
2022/07/08 00:20:42;;;;;;;;;;;14.30;99.90;;;;;;5058406;28;19952;-71
2022/07/08 00:23:10;;;;;;;;;;;14.20;99.90;;;;;;5063985;28;19921;-72
2022/07/08 00:25:36;;;;;;;;;;;14.20;99.90;;;;;;5064280;28;19921;-72
2022/07/08 00:28:03;;;;;;;;;;;14.20;99.90;;;;;;5064122;28;19987;-72
2022/07/08 00:30:30;;;;;;;;;;;14.10;99.90;;;;;;5064492;28;19921;-72
2022/07/08 00:32:57;;;;;;;;;;;14.10;99.90;;;;;;5063888;28;19988;-72
2022/07/08 00:35:23;;;;;;;;;;;14.10;99.90;;;;;;5063906;28;19928;-72
2022/07/08 00:37:50;;;;;;;;;;;14.00;99.90;;;;;;5063935;28;19921;-72
2022/07/08 00:40:18;;;;;;;;;;;14.00;99.90;;;;;;5064567;28;19959;-72
2022/07/08 00:42:48;;;;;;;;;;;14.00;99.90;;;;;;5063387;28;20153;-72
2022/07/08 00:45:14;;;;;;;;;;;14.00;99.90;;;;;;5064017;28;19920;-71
2022/07/08 00:47:41;;;;;;;;;;;14.00;99.90;;;;;;5063699;28;19927;-72
2022/07/08 00:50:09;;;;;;;;;;;14.00;99.90;;;;;;5063834;28;19921;-72
2022/07/08 00:52:36;;;;;;;;;;;14.00;99.90;;;;;;5062950;28;19980;-72
2022/07/08 00:55:03;;;;;;;;;;;14.00;99.90;;;;;;5063551;28;19971;-72
2022/07/08 00:57:31;;;;;;;;;;;14.00;99.90;;;;;;5063664;28;19928;-72
2022/07/08 00:59:58;;;;;;;;;;;14.00;99.90;;;;;;5063933;28;19956;-72
2022/07/08 01:02:24;;;;;;;;;;;13.90;99.90;;;;;;5060576;28;19952;-72
2022/07/08 01:04:52;;;;;;;;;;;13.90;99.90;;;;;;5063062;28;19975;-72
2022/07/08 01:07:18;;;;;;;;;;;13.80;99.90;;;;;;5063570;28;19921;-72
2022/07/08 01:09:45;;;;;;;;;;;13.80;99.90;;;;;;5063301;28;20212;-71
2022/07/08 01:12:12;;;;;;;;;;;13.70;99.90;;;;;;5061297;28;19928;-72
2022/07/08 01:14:40;;;;;;;;;;;13.70;99.90;;;;;;5060182;28;19921;-72
2022/07/08 01:17:07;;;;;;;;;;;13.60;99.90;;;;;;5053844;28;19952;-71
2022/07/08 01:19:34;;;;;;;;;;;13.60;99.90;;;;;;5062619;28;19927;-72
2022/07/08 01:22:02;;;;;;;;;;;13.60;99.90;;;;;;5063259;28;19967;-72
2022/07/08 01:24:28;;;;;;;;;;;13.50;99.90;;;;;;5062586;28;20300;-72
2022/07/08 01:26:56;;;;;;;;;;;13.50;99.90;;;;;;5062784;28;19920;-72
2022/07/08 01:29:22;;;;;;;;;;;13.40;99.90;;;;;;5063464;28;19983;-71
2022/07/08 01:31:51;;;;;;;;;;;13.40;99.90;;;;;;5063204;28;19988;-72
2022/07/08 01:34:18;;;;;;;;;;;13.40;99.90;;;;;;5062699;28;19920;-72
2022/07/08 01:36:45;;;;;;;;;;;13.40;99.90;;;;;;5058432;28;19928;-72
2022/07/08 01:39:13;;;;;;;;;;;13.30;99.90;;;;;;5063292;28;20011;-72
2022/07/08 01:41:39;;;;;;;;;;;13.30;99.90;;;;;;5063291;28;19921;-72
2022/07/08 01:44:06;;;;;;;;;;;13.30;99.90;;;;;;5062655;28;19984;-70
2022/07/08 01:46:33;;;;;;;;;;;13.20;99.90;;;;;;5062594;28;19958;-72
2022/07/08 01:48:59;;;;;;;;;;;13.20;99.90;;;;;;5063011;28;19963;-72
2022/07/08 01:51:26;;;;;;;;;;;13.20;99.90;;;;;;5062807;28;19979;-72
2022/07/08 01:53:52;;;;;;;;;;;13.10;99.90;;;;;;5062261;28;19967;-72
2022/07/08 01:56:20;;;;;;;;;;;13.10;99.90;;;;;;5060115;28;20003;-72
2022/07/08 01:58:47;;;;;;;;;;;13.10;99.90;;;;;;5044955;28;19921;-71
2022/07/08 02:01:14;;;;;;;;;;;13.00;99.90;;;;;;5061240;28;20211;-72
2022/07/08 02:03:40;;;;;;;;;;;13.00;99.90;;;;;;5061996;28;20060;-71
2022/07/08 02:06:08;;;;;;;;;;;13.00;99.90;;;;;;5062213;28;20261;-72
2022/07/08 02:08:34;;;;;;;;;;;13.00;99.90;;;;;;5062976;28;19996;-72
2022/07/08 02:13:46;;;;;;;;;;;13.00;99.90;;;;;;5062453;28;19954;-71
2022/07/08 02:16:13;;;;;;;;;;;13.00;99.90;;;;;;5062329;28;19991;-71
2022/07/08 02:18:40;;;;;;;;;;;12.90;99.90;;;;;;5063022;28;19960;-71
2022/07/08 02:21:06;;;;;;;;;;;12.90;99.90;;;;;;5064360;28;19927;-71
2022/07/08 02:23:33;;;;;;;;;;;12.90;99.90;;;;;;5066397;28;19971;-70
2022/07/08 02:26:00;;;;;;;;;;;12.80;99.90;;;;;;5066329;28;19944;-71
2022/07/08 02:28:26;;;;;;;;;;;12.70;99.90;;;;;;5066587;28;19921;-72
2022/07/08 02:30:54;;;;;;;;;;;12.80;99.90;;;;;;5066774;28;20161;-72
2022/07/08 02:33:21;;;;;;;;;;;12.70;99.90;;;;;;5066198;28;20094;-71
2022/07/08 02:35:48;;;;;;;;;;;12.70;99.90;;;;;;5066213;28;19963;-71
2022/07/08 02:38:14;;;;;;;;;;;12.70;99.90;;;;;;5060720;28;19989;-72
2022/07/08 02:40:41;;;;;;;;;;;12.70;99.90;;;;;;5046613;28;19921;-72
2022/07/08 02:43:10;;;;;;;;;;;12.60;99.90;;;;;;5045603;28;19996;-70
2022/07/08 02:45:37;;;;;;;;;;;12.60;99.90;;;;;;5060888;28;19952;-72
2022/07/08 02:48:05;;;;;;;;;;;12.60;99.90;;;;;;5066259;28;19927;-72
2022/07/08 02:50:32;;;;;;;;;;;12.60;99.90;;;;;;5066609;28;19952;-73
2022/07/08 02:52:58;;;;;;;;;;;12.60;99.90;;;;;;5064443;28;20176;-71
2022/07/08 02:55:25;;;;;;;;;;;12.60;99.90;;;;;;5064560;28;19996;-72
2022/07/08 02:57:51;;;;;;;;;;;12.60;99.90;;;;;;5064560;28;19983;-72
2022/07/08 03:00:18;;;;;;;;;;;12.50;99.90;;;;;;5064651;28;19999;-72
2022/07/08 03:02:45;;;;;;;;;;;12.50;99.90;;;;;;5062053;28;19928;-72
2022/07/08 03:05:13;;;;;;;;;;;12.50;99.90;;;;;;5064361;28;19921;-72
2022/07/08 03:07:39;;;;;;;;;;;12.50;99.90;;;;;;5064653;28;20022;-72
2022/07/08 03:10:06;;;;;;;;;;;12.50;99.90;;;;;;5064612;28;19988;-72
2022/07/08 03:12:33;;;;;;;;;;;12.50;99.90;;;;;;5063910;28;19959;-72
2022/07/08 03:15:00;;;;;;;;;;;12.40;99.90;;;;;;5064382;28;19935;-72
2022/07/08 03:17:26;;;;;;;;;;;12.40;99.90;;;;;;5064310;28;19921;-72
2022/07/08 03:19:53;;;;;;;;;;;12.30;99.90;;;;;;5062217;28;19927;-72
2022/07/08 03:22:21;;;;;;;;;;;12.40;99.90;;;;;;5063811;28;19921;-71
2022/07/08 03:24:48;;;;;;;;;;;12.30;99.90;;;;;;5064300;28;20204;-72
2022/07/08 03:27:14;;;;;;;;;;;12.30;99.90;;;;;;5063841;28;20156;-72
2022/07/08 03:29:41;;;;;;;;;;;12.30;99.90;;;;;;5064447;28;19921;-71
2022/07/08 03:32:08;;;;;;;;;;;12.30;99.90;;;;;;5062626;28;19920;-70
2022/07/08 03:34:35;;;;;;;;;;;12.20;99.90;;;;;;5063745;28;19948;-72
2022/07/08 03:37:11;;;;;;;;;;;12.30;99.90;;;;;;5064141;28;19944;-72
2022/07/08 03:39:39;;;;;;;;;;;12.20;99.90;;;;;;5064043;28;20151;-72
2022/07/08 03:42:05;;;;;;;;;;;12.10;99.90;;;;;;5064530;28;20175;-72
2022/07/08 03:44:32;;;;;;;;;;;12.10;99.90;;;;;;5063120;28;19917;-72
2022/07/08 03:46:58;;;;;;;;;;;12.10;99.90;;;;;;5064211;28;20029;-72
2022/07/08 03:49:25;;;;;;;;;;;12.10;99.90;;;;;;5064056;28;19959;-72
2022/07/08 03:51:53;;;;;;;;;;;12.10;99.90;;;;;;5002086;28;1774009;-72
2022/07/08 03:54:20;;;;;;;;;;;12.00;99.90;;;;;;5063732;28;19956;-72
2022/07/08 03:56:48;;;;;;;;;;;12.00;99.90;;;;;;5064720;28;19921;-72
2022/07/08 03:59:14;;;;;;;;;;;12.00;99.90;;;;;;5064937;28;19991;-72
2022/07/08 04:01:41;;;;;;;;;;;12.00;99.90;;;;;;5062283;28;19984;-72
2022/07/08 04:04:07;;;;;;;;;;;12.00;99.90;;;;;;5063982;28;19920;-72
2022/07/08 04:06:34;;;;;;;;;;;12.10;99.90;;;;;;5064467;28;20292;-71
2022/07/08 04:09:01;;;;;;;;;;;12.10;99.90;;;;;;5064550;28;20208;-72
2022/07/08 04:11:27;;;;;;;;;;;12.10;99.90;;;;;;5064311;28;19921;-72
2022/07/08 04:13:56;;;;;;;;;;;12.10;99.90;;;;;;5064125;28;19999;-72
2022/07/08 04:16:23;;;;;;;;;;;12.10;99.90;;;;;;5064276;28;20136;-72
2022/07/08 04:18:50;;;;;;;;;;;12.10;99.90;;;;;;5064180;28;20248;-72
2022/07/08 04:21:16;;;;;;;;;;;12.10;99.90;;;;;;5064458;28;19935;-71
2022/07/08 04:23:43;;;;;;;;;;;12.20;99.90;;;;;;5063691;28;20211;-72
2022/07/08 04:26:10;;;;;;;;;;;12.20;99.90;;;;;;5064411;28;19984;-72
2022/07/08 04:28:36;;;;;;;;;;;12.20;99.90;;;;;;5064239;28;19955;-72
2022/07/08 04:31:04;;;;;;;;;;;12.30;99.90;;;;;;5064313;28;19921;-72
2022/07/08 04:33:31;;;;;;;;;;;12.30;99.90;;;;;;5063824;28;19927;-72
2022/07/08 04:35:58;;;;;;;;;;;12.30;99.90;;;;;;5063342;28;20185;-72
2022/07/08 04:38:24;;;;;;;;;;;12.40;99.90;;;;;;5093461;22;19952;-69
2022/07/08 04:40:51;;;;;;;;;;;12.40;99.90;;;;;;5083921;28;19927;-68
2022/07/08 04:43:18;;;;;;;;;;;12.40;99.90;;;;;;5083679;28;20203;-69
2022/07/08 04:45:44;;;;;;;;;;;12.50;99.90;;;;;;5083689;28;19984;-69
2022/07/08 04:48:12;;;;;;;;;;;12.50;99.90;;;;;;5083849;28;20215;-69
2022/07/08 04:50:39;;;;;;;;;;;12.60;99.90;;;;;;5083731;28;19927;-69
2022/07/08 04:53:06;;;;;;;;;;;12.60;99.90;;;;;;5073238;28;19920;-69
2022/07/08 04:55:33;;;;;;;;;;;12.60;99.90;;;;;;5069940;28;19991;-69
2022/07/08 04:58:01;;;;;;;;;;;12.60;99.90;;;;;;5083722;28;19920;-69
2022/07/08 05:00:28;;;;;;;;;;;12.50;99.90;;;;;;5083903;28;20166;-69
2022/07/08 05:02:55;;;;;;;;;;;12.50;99.90;;;;;;5082837;28;19984;-69
2022/07/08 05:05:23;;;;;;;;;;;12.50;99.90;;;;;;5083263;28;19992;-69
2022/07/08 05:07:51;;;;;;;;;;;12.50;99.90;;;;;;5083873;28;19951;-69
2022/07/08 05:10:18;;;;;;;;;;;12.50;99.90;;;;;;5084043;28;19924;-69
2022/07/08 05:12:45;;;;;;;;;;;12.50;99.90;;;;;;5083213;28;19920;-69
2022/07/08 05:15:12;;;;;;;;;;;12.50;99.90;;;;;;5083644;28;19991;-69
2022/07/08 05:17:39;;;;;;;;;;;12.60;99.90;;;;;;5084204;28;19920;-69
2022/07/08 05:20:07;;;;;;;;;;;12.60;99.90;;;;;;5085151;28;20255;-68
2022/07/08 05:22:35;;;;;;;;;;;12.60;99.90;;;;;;5083473;28;19956;-69
2022/07/08 05:25:01;;;;;;;;;;;12.60;99.90;;;;;;5082973;28;19921;-68
2022/07/08 05:27:28;;;;;;;;;;;12.60;99.90;;;;;;5083751;28;19988;-68
2022/07/08 05:29:55;;;;;;;;;;;12.60;99.90;;;;;;5084052;28;19920;-68
2022/07/08 05:32:21;;;;;;;;;;;12.70;99.90;;;;;;5083272;28;19939;-68
2022/07/08 05:34:48;;;;;;;;;;;12.70;99.90;;;;;;5083469;28;19962;-67
2022/07/08 05:37:15;;;;;;;;;;;12.70;99.90;;;;;;5083151;28;19920;-67
2022/07/08 05:39:43;;;;;;;;;;;12.70;99.90;;;;;;5083668;28;19928;-66
2022/07/08 05:42:11;;;;;;;;;;;12.80;99.90;;;;;;5083066;28;19988;-66
2022/07/08 05:44:38;;;;;;;;;;;12.80;99.90;;;;;;5083685;28;19983;-67
2022/07/08 05:47:05;;;;;;;;;;;12.80;99.90;;;;;;5080778;28;19920;-68
2022/07/08 05:49:32;;;;;;;;;;;12.90;99.90;;;;;;5083460;28;20164;-67
2022/07/08 05:51:58;;;;;;;;;;;12.90;99.90;;;;;;5083240;28;20131;-67
2022/07/08 05:54:25;;;;;;;;;;;13.00;99.90;;;;;;5082668;28;19951;-67
2022/07/08 05:56:53;;;;;;;;;;;12.90;99.90;;;;;;5086025;28;20239;-66
2022/07/08 05:59:20;;;;;;;;;;;13.00;99.90;;;;;;5087436;28;20003;-66
2022/07/08 06:01:47;;;;;;;;;;;13.10;99.90;;;;;;5084367;28;20358;-66
2022/07/08 06:04:13;;;;;;;;;;;13.10;99.90;;;;;;5084883;28;19927;-66
2022/07/08 06:06:40;;;;;;;;;;;13.20;99.90;;;;;;5086810;28;19948;-66
2022/07/08 06:09:06;;;;;;;;;;;13.20;99.90;;;;;;5087017;28;19992;-66
2022/07/08 06:11:33;;;;;;;;;;;13.20;99.90;;;;;;5086954;28;19992;-66
2022/07/08 06:14:01;;;;;;;;;;;13.20;99.90;;;;;;5086109;28;19958;-67
2022/07/08 06:16:28;;;;;;;;;;;13.30;99.90;;;;;;5086695;28;20003;-67
2022/07/08 06:18:54;;;;;;;;;;;13.40;99.90;;;;;;5086238;28;19992;-67
2022/07/08 06:21:21;;;;;;;;;;;13.40;99.90;;;;;;5086867;28;20203;-67
2022/07/08 06:23:48;;;;;;;;;;;13.50;99.90;;;;;;5086362;28;20191;-67
2022/07/08 06:26:14;;;;;;;;;;;13.50;99.90;;;;;;5086383;28;19952;-66
2022/07/08 06:28:41;;;;;;;;;;;13.60;99.90;;;;;;5086643;28;19920;-66
2022/07/08 06:31:09;;;;;;;;;;;13.70;99.90;;;;;;5086621;28;19959;-67
2022/07/08 06:33:36;;;;;;;;;;;13.70;99.90;;;;;;5086023;28;19951;-67
2022/07/08 06:36:02;;;;;;;;;;;13.70;99.90;;;;;;5087012;28;19920;-67
2022/07/08 06:38:29;;;;;;;;;;;13.80;99.90;;;;;;5086539;28;19983;-67
2022/07/08 06:40:56;;;;;;;;;;;13.90;99.90;;;;;;5080869;28;20523;-67
2022/07/08 06:43:22;;;;;;;;;;;14.00;99.90;;;;;;5093381;28;19940;-67
2022/07/08 06:45:49;;;;;;;;;;;14.00;99.90;;;;;;5086062;28;19920;-67
2022/07/08 06:48:17;;;;;;;;;;;14.00;99.90;;;;;;5086304;28;19948;-67
2022/07/08 06:50:44;;;;;;;;;;;14.10;99.90;;;;;;5086105;28;19955;-67
2022/07/08 06:53:10;;;;;;;;;;;14.10;99.90;;;;;;5085736;28;19924;-67
2022/07/08 06:55:37;;;;;;;;;;;14.10;99.90;;;;;;5085463;28;20003;-67
2022/07/08 06:58:04;;;;;;;;;;;14.10;99.90;;;;;;5081681;28;20180;-67
2022/07/08 07:00:30;;;;;;;;;;;14.20;99.90;;;;;;5085765;28;19983;-67
2022/07/08 07:02:57;;;;;;;;;;;14.30;99.90;;;;;;5085101;28;19958;-67
2022/07/08 07:05:25;;;;;;;;;;;14.40;99.90;;;;;;5085711;28;19959;-67
2022/07/08 07:07:52;;;;;;;;;;;14.50;99.90;;;;;;5086138;28;19924;-66
2022/07/08 07:10:18;;;;;;;;;;;14.60;99.90;;;;;;5086350;28;19927;-67
2022/07/08 07:12:45;;;;;;;;;;;14.60;99.90;;;;;;5085623;28;20327;-67
2022/07/08 07:15:11;;;;;;;;;;;14.60;99.90;;;;;;5085777;28;19930;-66
2022/07/08 07:17:40;;;;;;;;;;;14.70;99.90;;;;;;5086189;28;19983;-67
2022/07/08 07:20:07;;;;;;;;;;;14.70;99.90;;;;;;5082895;28;19981;-68
2022/07/08 07:22:35;;;;;;;;;;;14.70;99.90;;;;;;5083982;28;19983;-65
2022/07/08 07:25:02;;;;;;;;;;;14.70;99.90;;;;;;5086238;28;19943;-65
2022/07/08 07:27:28;;;;;;;;;;;14.80;99.90;;;;;;5083414;28;19924;-65
2022/07/08 07:29:55;;;;;;;;;;;14.80;99.90;;;;;;5082635;28;19963;-65
2022/07/08 07:32:22;;;;;;;;;;;14.90;99.90;;;;;;5082615;28;19935;-65
2022/07/08 07:34:48;;;;;;;;;;;15.00;99.90;;;;;;5084324;28;19955;-65
2022/07/08 07:37:15;;;;;;;;;;;15.10;99.90;;;;;;5075262;28;19987;-65
2022/07/08 07:39:43;;;;;;;;;;;15.20;99.90;;;;;;5083175;28;19921;-65
2022/07/08 07:42:09;;;;;;;;;;;15.20;99.90;;;;;;5084708;28;19979;-65
2022/07/08 07:44:36;;;;;;;;;;;15.20;99.90;;;;;;5085166;28;19983;-65
2022/07/08 07:47:03;;;;;;;;;;;15.30;99.90;;;;;;5085302;28;19959;-65
2022/07/08 07:49:30;;;;;;;;;;;15.40;99.90;;;;;;5082816;28;20190;-65
2022/07/08 07:51:56;;;;;;;;;;;15.40;99.90;;;;;;5085346;28;19980;-65
2022/07/08 07:54:23;;;;;;;;;;;15.40;99.90;;;;;;5079621;28;19928;-65
2022/07/08 07:56:51;;;;;;;;;;;15.50;99.90;;;;;;5081221;28;20110;-65
2022/07/08 07:59:17;;;;;;;;;;;15.60;99.90;;;;;;5082362;28;19951;-65
2022/07/08 08:01:44;;;;;;;;;;;15.50;99.90;;;;;;5084977;28;19978;-65
2022/07/08 08:04:11;;;;;;;;;;;15.60;99.90;;;;;;5084019;28;19927;-65
2022/07/08 08:06:37;;;;;;;;;;;15.70;99.90;;;;;;5064614;28;19992;-65
2022/07/08 08:09:04;;;;;;;;;;;15.70;99.90;;;;;;5074929;28;19920;-65
2022/07/08 08:11:31;;;;;;;;;;;15.70;99.90;;;;;;5084633;28;20120;-65
2022/07/08 08:13:59;;;;;;;;;;;15.70;99.90;;;;;;5083981;28;19956;-65
2022/07/08 08:16:26;;;;;;;;;;;15.80;99.90;;;;;;5084406;28;19926;-65
2022/07/08 08:18:53;;;;;;;;;;;15.80;99.90;;;;;;5083642;28;20107;-65
2022/07/08 08:21:19;;;;;;;;;;;15.90;99.90;;;;;;5084622;28;19925;-65
2022/07/08 08:23:46;;;;;;;;;;;16.00;99.90;;;;;;5084049;28;19920;-65
2022/07/08 08:26:13;;;;;;;;;;;16.10;99.90;;;;;;5084550;28;19921;-65
2022/07/08 08:28:39;;;;;;;;;;;16.20;99.90;;;;;;5083923;28;19988;-65
2022/07/08 08:31:07;;;;;;;;;;;16.20;99.90;;;;;;5084948;28;19951;-65
2022/07/08 08:33:34;;;;;;;;;;;16.30;99.90;;;;;;5081206;28;19956;-65
2022/07/08 08:36:01;;;;;;;;;;;16.50;99.90;;;;;;5082374;28;19955;-64
2022/07/08 08:38:27;;;;;;;;;;;16.50;99.90;;;;;;5080013;28;20101;-64
2022/07/08 08:40:57;;;;;;;;;;;16.50;99.90;;;;;;5064049;28;20231;-65
2022/07/08 08:43:24;;;;;;;;;;;16.40;99.90;;;;;;5074810;28;19921;-65
2022/07/08 08:45:51;;;;;;;;;;;16.50;99.90;;;;;;5083665;28;20168;-65
2022/07/08 08:48:22;;;;;;;;;;;16.50;99.90;;;;;;5083660;28;19956;-65
2022/07/08 08:50:56;;;;;;;;;;;16.50;99.90;;;;;;5083770;28;19987;-65
2022/07/08 08:53:28;;;;;;;;;;;16.50;99.90;;;;;;5083540;28;19927;-65
2022/07/08 08:55:54;;;;;;;;;;;16.60;99.90;;;;;;5083368;28;19920;-65
2022/07/08 08:58:21;;;;;;;;;;;16.70;99.90;;;;;;5077184;28;19928;-65
2022/07/08 09:00:48;;;;;;;;;;;16.80;99.90;;;;;;5083076;28;19991;-65
2022/07/08 09:03:15;;;;;;;;;;;16.90;99.90;;;;;;5083178;28;19952;-65
2022/07/08 09:05:43;;;;;;;;;;;17.00;99.90;;;;;;5083506;28;20231;-65
2022/07/08 09:08:09;;;;;;;;;;;17.10;99.90;;;;;;5083507;28;19958;-65
2022/07/08 09:10:36;;;;;;;;;;;17.20;99.90;;;;;;5083488;28;19921;-65
2022/07/08 09:13:04;;;;;;;;;;;17.30;99.90;;;;;;5082606;28;19928;-65
2022/07/08 09:15:32;;;;;;;;;;;17.30;99.90;;;;;;5083593;28;20154;-65
2022/07/08 09:18:00;;;;;;;;;;;17.30;99.90;;;;;;5083377;28;19966;-65
2022/07/08 09:20:27;;;;;;;;;;;17.30;99.90;;;;;;5080777;28;19995;-65
2022/07/08 09:22:57;;;;;;;;;;;17.30;99.90;;;;;;5079877;28;19924;-64
2022/07/08 09:25:24;;;;;;;;;;;17.40;99.90;;;;;;5073383;28;20270;-65
2022/07/08 09:27:50;;;;;;;;;;;17.50;99.90;;;;;;5083322;28;19952;-65
2022/07/08 09:30:17;;;;;;;;;;;17.50;99.90;;;;;;5082592;28;20234;-65
2022/07/08 09:32:56;;;;;;;;;;;17.50;99.90;;;;;;5083003;28;19927;-64
2022/07/08 09:35:23;;;;;;;;;;;17.50;99.90;;;;;;5082954;28;19920;-64
2022/07/08 09:37:51;;;;;;;;;;;17.50;99.90;;;;;;5082972;28;20291;-65
2022/07/08 09:40:19;;;;;;;;;;;17.70;99.90;;;;;;5082379;28;19932;-65
2022/07/08 09:42:45;;;;;;;;;;;17.80;99.90;;;;;;5082370;28;19991;-65
2022/07/08 09:45:12;;;;;;;;;;;17.90;99.90;;;;;;5082461;28;19920;-66
2022/07/08 09:47:39;;;;;;;;;;;17.90;99.90;;;;;;5082766;28;19952;-65
2022/07/08 09:50:09;;;;;;;;;;;18.00;99.90;;;;;;5083273;28;19920;-65
2022/07/08 09:52:35;;;;;;;;;;;17.90;99.90;;;;;;5068446;28;19920;-65
2022/07/08 09:55:03;;;;;;;;;;;17.80;99.90;;;;;;5072971;28;19988;-65
2022/07/08 09:57:31;;;;;;;;;;;17.90;99.90;;;;;;5081904;28;19920;-65
2022/07/08 09:59:58;;;;;;;;;;;18.10;99.90;;;;;;5083251;28;19947;-64
2022/07/08 10:02:25;;;;;;;;;;;18.10;99.90;;;;;;5079351;28;19928;-65
2022/07/08 10:04:52;;;;;;;;;;;18.00;99.90;;;;;;5080532;28;19991;-65
2022/07/08 10:07:19;;;;;;;;;;;17.90;99.90;;;;;;5083408;28;20174;-65
2022/07/08 10:09:45;;;;;;;;;;;17.90;99.90;;;;;;5083398;28;20173;-65
2022/07/08 10:12:13;;;;;;;;;;;17.80;99.90;;;;;;5081976;28;20318;-65
2022/07/08 10:14:42;;;;;;;;;;;17.80;99.90;;;;;;5082069;28;19926;-64
2022/07/08 10:17:12;;;;;;;;;;;17.90;99.90;;;;;;5083237;28;20015;-64
2022/07/08 10:19:41;;;;;;;;;;;17.90;99.90;;;;;;5082256;28;19928;-65
2022/07/08 10:22:09;;;;;;;;;;;18.00;99.90;;;;;;5082956;28;19955;-64
2022/07/08 10:24:39;;;;;;;;;;;18.00;99.90;;;;;;5083020;28;19952;-65
2022/07/08 10:27:06;;;;;;;;;;;18.10;99.90;;;;;;5083039;28;19987;-65
2022/07/08 10:29:33;;;;;;;;;;;18.10;99.90;;;;;;5083176;28;19987;-65
2022/07/08 10:32:02;;;;;;;;;;;18.10;99.90;;;;;;5080196;28;19921;-64
2022/07/08 10:34:32;;;;;;;;;;;18.40;99.90;;;;;;5062336;28;19928;-64
2022/07/08 10:36:58;;;;;;;;;;;18.50;99.90;;;;;;5101733;22;20259;-68
2022/07/08 10:39:26;;;;;;;;;;;18.80;99.90;;;;;;5066674;28;19964;-69
2022/07/08 10:41:57;;;;;;;;;;;19.00;99.90;;;;;;5072944;28;19924;-69
2022/07/08 10:44:42;;;;;;;;;;;19.00;99.90;;;;;;5071306;28;19924;-69
2022/07/08 10:47:10;;;;;;;;;;;19.00;99.90;;;;;;5071952;28;19952;-70
2022/07/08 10:49:40;;;;;;;;;;;19.00;99.90;;;;;;5076606;28;19963;-70
2022/07/08 10:52:07;;;;;;;;;;;19.00;99.90;;;;;;5069979;28;20263;-70
2022/07/08 10:54:36;;;;;;;;;;;19.10;99.90;;;;;;5077084;28;19959;-70
2022/07/08 10:57:07;;;;;;;;;;;19.20;99.90;;;;;;5071327;28;19920;-69
2022/07/08 10:59:35;;;;;;;;;;;19.30;99.90;;;;;;5075226;28;20226;-69
2022/07/08 11:02:03;;;;;;;;;;;19.40;99.90;;;;;;5066783;28;19925;-71
2022/07/08 11:04:43;;;;;;;;;;;19.40;99.90;;;;;;5072836;28;19920;-69
2022/07/08 11:07:27;;;;;;;;;;;19.40;99.90;;;;;;5074518;28;19920;-69
2022/07/08 11:09:54;;;;;;;;;;;19.40;99.90;;;;;;5072472;28;19921;-70
2022/07/08 11:12:22;;;;;;;;;;;19.40;99.90;;;;;;5073750;28;19928;-70
2022/07/08 11:14:50;;;;;;;;;;;19.40;99.90;;;;;;5074624;28;20001;-69
2022/07/08 11:17:16;;;;;;;;;;;19.40;99.90;;;;;;5086294;28;19920;-69
2022/07/08 11:19:45;;;;;;;;;;;19.50;99.90;;;;;;5086522;28;19952;-69
2022/07/08 11:22:12;;;;;;;;;;;19.70;99.90;;;;;;5070412;28;20168;-68
2022/07/08 11:24:39;;;;;;;;;;;19.90;99.90;;;;;;5066105;28;19955;-70
2022/07/08 11:27:06;;;;;;;;;;;20.10;99.90;;;;;;5065756;28;19947;-69
2022/07/08 11:29:33;;;;;;;;;;;20.30;99.90;;;;;;5066234;28;19987;-69
2022/07/08 11:32:01;;;;;;;;;;;20.30;99.90;;;;;;5068930;28;19948;-69
2022/07/08 11:34:28;;;;;;;;;;;20.20;99.90;;;;;;5065121;28;19948;-69
2022/07/08 11:36:57;;;;;;;;;;;20.10;99.90;;;;;;5065402;28;19921;-69
2022/07/08 11:39:23;;;;;;;;;;;20.00;99.90;;;;;;5050976;28;20228;-69
2022/07/08 11:41:50;;;;;;;;;;;19.80;99.90;;;;;;5045684;28;20015;-69
2022/07/08 11:44:18;;;;;;;;;;;19.70;99.90;;;;;;5059383;28;20239;-68
2022/07/08 11:46:46;;;;;;;;;;;19.70;99.90;;;;;;5045289;28;19928;-69
2022/07/08 11:49:13;;;;;;;;;;;19.80;99.90;;;;;;5047723;28;20175;-68
2022/07/08 11:51:44;;;;;;;;;;;19.90;99.90;;;;;;5065385;28;20172;-69
2022/07/08 11:54:12;;;;;;;;;;;20.00;99.90;;;;;;5063305;28;19920;-68
2022/07/08 11:56:39;;;;;;;;;;;20.30;99.90;;;;;;5065154;28;20208;-69
2022/07/08 11:59:05;;;;;;;;;;;20.60;99.90;;;;;;5064657;28;19983;-70
2022/07/08 12:01:33;;;;;;;;;;;20.80;99.90;;;;;;5065257;28;20159;-69
2022/07/08 12:04:00;;;;;;;;;;;20.70;99.90;;;;;;5063947;28;19920;-70
2022/07/08 12:06:27;;;;;;;;;;;20.60;99.90;;;;;;5064935;28;19989;-69
2022/07/08 12:08:54;;;;;;;;;;;20.50;99.90;;;;;;5064712;28;19958;-70
2022/07/08 12:11:23;;;;;;;;;;;20.50;99.90;;;;;;5064728;28;19952;-70
2022/07/08 12:13:50;;;;;;;;;;;20.60;99.90;;;;;;5064156;28;19948;-70
2022/07/08 12:16:30;;;;;;;;;;;20.90;99.90;;;;;;5064378;28;19975;-70
2022/07/08 12:18:56;;;;;;;;;;;21.20;99.90;;;;;;5064484;28;19992;-70
2022/07/08 12:21:23;;;;;;;;;;;21.50;99.90;;;;;;5064368;28;19959;-69
2022/07/08 12:23:57;;;;;;;;;;;21.80;99.90;;;;;;5044169;28;19989;-70
2022/07/08 12:26:25;;;;;;;;;;;22.00;99.90;;;;;;5044349;28;19921;-70
2022/07/08 12:28:51;;;;;;;;;;;22.20;99.90;;;;;;5044418;28;19921;-70
2022/07/08 12:31:48;;;;;;;;;;;22.40;99.90;;;;;;5062905;28;19963;-70
2022/07/08 12:34:16;;;;;;;;;;;22.70;99.90;;;;;;5021972;28;19927;-70
2022/07/08 12:36:43;;;;;;;;;;;22.90;99.90;;;;;;5054532;28;20174;-70
2022/07/08 12:39:13;;;;;;;;;;;23.20;99.90;;;;;;5063721;28;20119;-69
2022/07/08 12:41:41;;;;;;;;;;;23.30;99.90;;;;;;5064256;28;19959;-70
2022/07/08 12:44:28;;;;;;;;;;;23.10;99.90;;;;;;5063474;28;19948;-70
2022/07/08 12:46:55;;;;;;;;;;;22.90;99.90;;;;;;5062112;28;19921;-70
2022/07/08 12:49:22;;;;;;;;;;;22.50;99.90;;;;;;5063829;28;19920;-69
2022/07/08 12:51:49;;;;;;;;;;;22.30;99.90;;;;;;5064054;28;20120;-70
2022/07/08 12:54:16;;;;;;;;;;;22.10;99.90;;;;;;5063714;28;19988;-69
2022/07/08 12:56:44;;;;;;;;;;;22.30;99.90;;;;;;5064015;28;19936;-70
2022/07/08 12:59:11;;;;;;;;;;;22.30;99.90;;;;;;5063389;28;19992;-70
2022/07/08 13:01:38;;;;;;;;;;;22.40;99.90;;;;;;5044032;28;19925;-70
2022/07/08 13:04:04;;;;;;;;;;;22.70;99.90;;;;;;5057694;28;19955;-70
2022/07/08 13:06:31;;;;;;;;;;;23.10;99.90;;;;;;5063577;28;19929;-70
2022/07/08 13:08:58;;;;;;;;;;;23.30;99.90;;;;;;5062719;28;20186;-70
2022/07/08 13:11:24;;;;;;;;;;;23.60;99.90;;;;;;5063359;28;19963;-69
2022/07/08 13:13:52;;;;;;;;;;;23.50;99.90;;;;;;5063476;28;19952;-69
2022/07/08 13:16:19;;;;;;;;;;;23.20;99.90;;;;;;5063633;28;20343;-70
2022/07/08 13:18:46;;;;;;;;;;;22.90;99.90;;;;;;5059693;28;19920;-69
2022/07/08 13:21:12;;;;;;;;;;;22.90;99.90;;;;;;5060991;28;19980;-70
2022/07/08 13:23:39;;;;;;;;;;;22.90;99.90;;;;;;5054209;28;19928;-70
2022/07/08 13:26:06;;;;;;;;;;;23.20;99.90;;;;;;5063932;28;19921;-70
2022/07/08 13:28:33;;;;;;;;;;;23.60;99.90;;;;;;5063967;28;19927;-70
2022/07/08 13:31:01;;;;;;;;;;;23.80;99.90;;;;;;5063913;28;19921;-70
2022/07/08 13:33:27;;;;;;;;;;;23.90;99.90;;;;;;5055151;28;19959;-70
2022/07/08 13:35:54;;;;;;;;;;;24.20;99.90;;;;;;5063363;28;19993;-70
2022/07/08 13:38:21;;;;;;;;;;;24.10;99.30;;;;;;5063314;28;19995;-70
2022/07/08 13:40:47;;;;;;;;;;;24.10;99.90;;;;;;5062041;28;19948;-70
2022/07/08 13:43:14;;;;;;;;;;;24.20;99.90;;;;;;5061051;28;19928;-72
2022/07/08 13:45:41;;;;;;;;;;;24.30;99.50;;;;;;5061555;28;19952;-71
2022/07/08 13:48:09;;;;;;;;;;;24.50;99.00;;;;;;5061400;28;19955;-71
2022/07/08 13:50:35;;;;;;;;;;;24.40;97.90;;;;;;5064367;28;20260;-70
2022/07/08 13:53:02;;;;;;;;;;;24.60;99.30;;;;;;5070124;28;20361;-70
2022/07/08 13:55:29;;;;;;;;;;;24.80;98.40;;;;;;5060454;28;19996;-70
2022/07/08 13:57:55;;;;;;;;;;;25.10;98.20;;;;;;5062913;28;19983;-71
2022/07/08 14:00:22;;;;;;;;;;;25.20;97.00;;;;;;5062834;28;19927;-70
2022/07/08 14:02:49;;;;;;;;;;;25.30;96.50;;;;;;5059317;28;19988;-71
2022/07/08 14:05:17;;;;;;;;;;;25.30;97.20;;;;;;5065627;28;19935;-70
2022/07/08 14:07:43;;;;;;;;;;;25.40;96.60;;;;;;5057554;28;19921;-71
2022/07/08 14:10:10;;;;;;;;;;;25.60;96.30;;;;;;5062346;28;20176;-71
2022/07/08 14:12:37;;;;;;;;;;;25.70;95.60;;;;;;5062421;28;20121;-70
2022/07/08 14:15:03;;;;;;;;;;;25.70;96.20;;;;;;5062633;28;20168;-70
2022/07/08 14:17:32;;;;;;;;;;;25.80;96.50;;;;;;5065379;28;19920;-71
2022/07/08 14:19:59;;;;;;;;;;;25.70;95.70;;;;;;5058575;28;19967;-70